Time;durP1;ratioP1;P1;durP2;ratioP2;P2;SDS_P1;SDS_P2;PMS_P1;PMS_P2;Temp;Humidity;BMP_temperature;BMP_pressure;BME280_temperature;BME280_humidity;BME280_pressure;Samples;Min_cycle;Max_cycle;Signal;HPM_P1;HPM_P2
2021/09/01 00:02:03;;;;;;;0.00;0.00;;;18.60;78.30;;;;;;5085435;28;20315;-69
2021/09/01 00:04:31;;;;;;;0.10;0.10;;;18.60;78.30;;;;;;5084153;28;20256;-69
2021/09/01 00:06:58;;;;;;;0.10;0.10;;;18.50;78.30;;;;;;5085881;28;20216;-69
2021/09/01 00:09:25;;;;;;;0.00;0.00;;;18.50;78.40;;;;;;5086159;28;20221;-69
2021/09/01 00:11:53;;;;;;;0.10;0.10;;;18.50;78.50;;;;;;5082644;28;20612;-69
2021/09/01 00:14:22;;;;;;;0.10;0.10;;;18.50;78.50;;;;;;5079542;28;20229;-69
2021/09/01 00:16:50;;;;;;;0.00;0.00;;;18.50;78.50;;;;;;5068108;28;20250;-69
2021/09/01 00:19:17;;;;;;;0.00;0.00;;;18.50;78.40;;;;;;5069315;28;20217;-69
2021/09/01 00:21:44;;;;;;;0.00;0.00;;;18.50;78.50;;;;;;5083987;28;20586;-69
2021/09/01 00:24:11;;;;;;;0.00;0.00;;;18.50;78.50;;;;;;5082698;28;20265;-69
2021/09/01 00:26:38;;;;;;;0.10;0.10;;;18.50;78.60;;;;;;5084203;28;20209;-69
2021/09/01 00:29:05;;;;;;;0.00;0.00;;;18.50;78.80;;;;;;5067386;28;20226;-69
2021/09/01 00:31:33;;;;;;;0.20;0.20;;;18.40;78.90;;;;;;5083665;28;20451;-69
2021/09/01 00:34:00;;;;;;;0.00;0.00;;;18.40;79.00;;;;;;5085946;28;20209;-70
2021/09/01 00:36:27;;;;;;;0.27;0.27;;;18.40;79.30;;;;;;5082703;28;20274;-69
2021/09/01 00:38:54;;;;;;;0.10;0.10;;;18.40;79.80;;;;;;5086320;28;20217;-69
2021/09/01 00:41:25;;;;;;;0.00;0.00;;;18.40;79.80;;;;;;5086135;28;20225;-69
2021/09/01 00:43:54;;;;;;;0.10;0.10;;;18.30;79.50;;;;;;5083642;28;20243;-69
2021/09/01 00:46:22;;;;;;;0.00;0.00;;;18.20;79.40;;;;;;5067024;28;20209;-69
2021/09/01 00:48:53;;;;;;;0.00;0.00;;;18.20;79.60;;;;;;5084441;28;20563;-69
2021/09/01 00:51:21;;;;;;;0.23;0.23;;;18.20;79.80;;;;;;5083042;28;20627;-69
2021/09/01 00:53:49;;;;;;;0.10;0.10;;;18.10;80.10;;;;;;5082576;28;20267;-69
2021/09/01 00:56:21;;;;;;;0.00;0.00;;;18.10;80.30;;;;;;5081800;28;20732;-69
2021/09/01 00:58:49;;;;;;;0.10;0.10;;;18.10;80.60;;;;;;5079729;28;20602;-69
2021/09/01 01:01:20;;;;;;;0.10;0.10;;;18.10;80.60;;;;;;5084574;28;20286;-69
2021/09/01 01:03:50;;;;;;;0.10;0.10;;;18.10;80.50;;;;;;5084225;28;20242;-69
2021/09/01 01:06:25;;;;;;;0.13;0.13;;;18.20;80.50;;;;;;5082760;28;20229;-69
2021/09/01 01:08:54;;;;;;;0.10;0.10;;;18.10;80.50;;;;;;5078637;28;20213;-69
2021/09/01 01:11:22;;;;;;;0.10;0.10;;;18.10;80.50;;;;;;5064605;28;20311;-69
2021/09/01 01:13:50;;;;;;;0.10;0.10;;;18.10;80.90;;;;;;5084611;28;20204;-69
2021/09/01 01:16:19;;;;;;;0.33;0.33;;;18.10;81.10;;;;;;5065824;28;20217;-69
2021/09/01 01:18:49;;;;;;;0.10;0.10;;;18.00;81.00;;;;;;5083547;28;20278;-69
2021/09/01 01:21:20;;;;;;;0.00;0.00;;;18.00;80.90;;;;;;5084295;28;20228;-69
2021/09/01 01:24:01;;;;;;;0.10;0.10;;;18.00;80.90;;;;;;5081732;28;20267;-69
2021/09/01 01:26:31;;;;;;;0.00;0.00;;;18.00;80.70;;;;;;5081395;28;20653;-69
2021/09/01 01:29:05;;;;;;;0.10;0.10;;;17.90;80.30;;;;;;5082847;28;20217;-69
2021/09/01 01:31:32;;;;;;;0.10;0.10;;;17.90;80.00;;;;;;5075828;28;20546;-69
2021/09/01 01:33:59;;;;;;;0.10;0.10;;;17.90;79.80;;;;;;5081375;28;20208;-69
2021/09/01 01:36:26;;;;;;;0.10;0.10;;;17.80;79.60;;;;;;5082645;28;20202;-69
2021/09/01 01:38:53;;;;;;;0.00;0.00;;;17.80;79.50;;;;;;5082327;28;20209;-69
2021/09/01 01:41:21;;;;;;;0.10;0.10;;;17.70;79.60;;;;;;5083634;28;20647;-69
2021/09/01 01:43:49;;;;;;;0.10;0.10;;;17.70;79.70;;;;;;5082955;28;20545;-69
2021/09/01 01:46:16;;;;;;;0.10;0.10;;;17.70;79.80;;;;;;5082769;28;20594;-69
2021/09/01 01:48:44;;;;;;;0.10;0.10;;;17.70;79.90;;;;;;5083857;28;20210;-69
2021/09/01 01:51:12;;;;;;;0.10;0.10;;;17.80;80.10;;;;;;5082156;28;20681;-69
2021/09/01 01:53:39;;;;;;;0.10;0.10;;;17.80;80.20;;;;;;5082585;28;20652;-69
2021/09/01 01:56:06;;;;;;;0.10;0.10;;;17.80;80.30;;;;;;5084414;28;20217;-69
2021/09/01 01:58:33;;;;;;;0.10;0.10;;;17.70;80.80;;;;;;5081051;28;20219;-69
2021/09/01 02:01:00;;;;;;;0.10;0.10;;;17.70;81.00;;;;;;5077229;28;20217;-69
2021/09/01 02:03:27;;;;;;;0.77;0.77;;;17.60;81.10;;;;;;5066888;28;20216;-69
2021/09/01 02:05:54;;;;;;;0.10;0.10;;;17.60;81.20;;;;;;5080501;28;20221;-69
2021/09/01 02:08:21;;;;;;;0.10;0.10;;;17.50;81.40;;;;;;5072895;28;20518;-69
2021/09/01 02:10:47;;;;;;;0.10;0.10;;;17.50;81.60;;;;;;5064600;28;20458;-69
2021/09/01 02:13:15;;;;;;;0.10;0.10;;;17.50;81.60;;;;;;5082199;28;20217;-69
2021/09/01 02:15:42;;;;;;;0.00;0.00;;;17.50;81.50;;;;;;5082694;28;20205;-70
2021/09/01 02:18:09;;;;;;;0.00;0.00;;;17.50;81.60;;;;;;5083139;28;20233;-70
2021/09/01 02:20:36;;;;;;;0.00;0.00;;;17.50;81.70;;;;;;5081700;28;20212;-70
2021/09/01 02:23:03;;;;;;;0.03;0.03;;;17.50;81.90;;;;;;5083959;28;20216;-70
2021/09/01 02:25:30;;;;;;;0.10;0.10;;;17.60;81.90;;;;;;5080103;28;20629;-70
2021/09/01 02:27:58;;;;;;;0.00;0.00;;;17.60;81.70;;;;;;5080790;28;20218;-70
2021/09/01 02:30:25;;;;;;;0.43;0.43;;;17.60;81.50;;;;;;5083927;28;20240;-70
2021/09/01 02:32:51;;;;;;;0.00;0.00;;;17.70;81.70;;;;;;5076854;28;20210;-70
2021/09/01 02:35:19;;;;;;;0.10;0.10;;;17.70;81.60;;;;;;5080220;28;20639;-70
2021/09/01 02:37:46;;;;;;;0.00;0.00;;;17.70;81.40;;;;;;5060412;28;20244;-70
2021/09/01 02:40:13;;;;;;;0.00;0.00;;;17.70;81.40;;;;;;5073575;28;20221;-70
2021/09/01 02:42:40;;;;;;;0.40;0.40;;;17.60;81.50;;;;;;5080379;28;20710;-70
2021/09/01 02:45:07;;;;;;;0.03;0.03;;;17.60;81.80;;;;;;5082340;28;20455;-70
2021/09/01 02:47:35;;;;;;;0.00;0.00;;;17.60;82.00;;;;;;5082928;28;20219;-70
2021/09/01 02:50:04;;;;;;;0.03;0.03;;;17.60;82.00;;;;;;5082631;28;20261;-70
2021/09/01 02:52:33;;;;;;;0.00;0.00;;;17.60;82.10;;;;;;5080674;28;20209;-70
2021/09/01 02:55:00;;;;;;;0.00;0.00;;;17.50;82.10;;;;;;5080043;28;20253;-70
2021/09/01 02:57:27;;;;;;;0.40;0.40;;;17.50;82.20;;;;;;5078576;28;20232;-70
2021/09/01 02:59:54;;;;;;;0.67;0.67;;;17.40;82.60;;;;;;5099437;28;20221;-70
2021/09/01 03:02:21;;;;;;;0.10;0.10;;;17.40;83.00;;;;;;5080055;28;20224;-70
2021/09/01 03:04:48;;;;;;;0.10;0.10;;;17.40;83.40;;;;;;5079931;28;20241;-70
2021/09/01 03:07:15;;;;;;;0.10;0.10;;;17.30;83.50;;;;;;5072050;28;20221;-70
2021/09/01 03:09:42;;;;;;;0.10;0.10;;;17.30;83.50;;;;;;5064406;28;20320;-70
2021/09/01 03:12:09;;;;;;;0.10;0.10;;;17.30;83.40;;;;;;5081191;28;20198;-70
2021/09/01 03:14:36;;;;;;;0.00;0.00;;;17.40;83.40;;;;;;5082186;28;20685;-70
2021/09/01 03:17:04;;;;;;;0.00;0.00;;;17.40;83.20;;;;;;5063223;28;20274;-70
2021/09/01 03:19:31;;;;;;;0.00;0.00;;;17.30;82.90;;;;;;5082479;28;20208;-70
2021/09/01 03:21:58;;;;;;;0.10;0.10;;;17.30;82.90;;;;;;5079943;28;20267;-70
2021/09/01 03:24:25;;;;;;;0.10;0.10;;;17.30;82.90;;;;;;5073471;28;20232;-70
2021/09/01 03:26:52;;;;;;;0.37;0.37;;;17.30;83.10;;;;;;5079504;28;20237;-70
2021/09/01 03:29:19;;;;;;;0.10;0.10;;;17.30;83.30;;;;;;5075746;28;20214;-70
2021/09/01 03:31:46;;;;;;;0.00;0.00;;;17.20;83.30;;;;;;5081451;28;20655;-70
2021/09/01 03:34:13;;;;;;;0.00;0.00;;;17.20;83.20;;;;;;5080573;28;20214;-70
2021/09/01 03:36:40;;;;;;;0.33;0.33;;;17.10;83.00;;;;;;5080456;28;20213;-70
2021/09/01 03:39:07;;;;;;;0.00;0.00;;;17.10;82.90;;;;;;5080831;28;20221;-70
2021/09/01 03:41:35;;;;;;;0.10;0.10;;;17.10;82.70;;;;;;5081592;28;20305;-70
2021/09/01 03:44:02;;;;;;;0.10;0.10;;;17.10;82.60;;;;;;5081411;28;20217;-70
2021/09/01 03:46:30;;;;;;;8.67;3.43;;;17.10;82.50;;;;;;5078834;28;20577;-70
2021/09/01 03:48:57;;;;;;;0.00;0.00;;;17.00;82.40;;;;;;5082053;28;20256;-70
2021/09/01 03:51:24;;;;;;;0.00;0.00;;;17.00;82.30;;;;;;5062239;28;20246;-70
2021/09/01 03:53:52;;;;;;;0.10;0.10;;;17.00;82.20;;;;;;5061664;28;20263;-70
2021/09/01 03:56:19;;;;;;;0.00;0.00;;;16.90;82.20;;;;;;5078865;28;20213;-70
2021/09/01 03:58:46;;;;;;;0.00;0.00;;;16.90;82.20;;;;;;5075456;28;20240;-70
2021/09/01 04:01:13;;;;;;;0.10;0.10;;;16.90;82.30;;;;;;5082413;28;20561;-70
2021/09/01 04:03:41;;;;;;;0.10;0.10;;;16.90;82.40;;;;;;5079819;28;20300;-70
2021/09/01 04:06:08;;;;;;;0.07;0.07;;;16.90;82.50;;;;;;5078779;28;20254;-70
2021/09/01 04:08:37;;;;;;;0.10;0.10;;;16.90;82.60;;;;;;5081491;28;20213;-70
2021/09/01 04:11:04;;;;;;;0.10;0.10;;;16.90;82.70;;;;;;5081024;28;20305;-70
2021/09/01 04:13:32;;;;;;;0.10;0.10;;;16.90;82.90;;;;;;5080919;28;20221;-70
2021/09/01 04:15:59;;;;;;;0.10;0.10;;;16.80;83.00;;;;;;5081684;28;20305;-70
2021/09/01 04:18:26;;;;;;;0.10;0.10;;;16.80;83.00;;;;;;5079911;28;20239;-70
2021/09/01 04:20:53;;;;;;;0.10;0.10;;;16.80;82.80;;;;;;5082280;28;20219;-70
2021/09/01 04:23:21;;;;;;;0.20;0.20;;;16.80;82.70;;;;;;5095002;28;20235;-70
2021/09/01 04:25:48;;;;;;;0.57;0.33;;;16.80;82.70;;;;;;5077988;28;20204;-70
2021/09/01 04:28:15;;;;;;;0.10;0.10;;;16.80;82.60;;;;;;5079359;28;20640;-70
2021/09/01 04:30:42;;;;;;;0.00;0.00;;;16.80;82.60;;;;;;5081628;28;20617;-70
2021/09/01 04:33:09;;;;;;;0.10;0.10;;;16.80;82.50;;;;;;5080039;28;20279;-70
2021/09/01 04:35:37;;;;;;;0.00;0.00;;;16.80;82.50;;;;;;5065531;28;20243;-70
2021/09/01 04:38:04;;;;;;;0.00;0.00;;;16.80;82.40;;;;;;5084732;28;20255;-70
2021/09/01 04:40:31;;;;;;;0.17;0.17;;;16.90;82.40;;;;;;5084165;28;20221;-70
2021/09/01 04:42:58;;;;;;;0.10;0.10;;;16.80;82.20;;;;;;5085116;28;20221;-70
2021/09/01 04:45:26;;;;;;;0.00;0.00;;;16.80;82.30;;;;;;5066032;28;20697;-70
2021/09/01 04:47:53;;;;;;;0.10;0.10;;;16.80;82.40;;;;;;5086467;28;20262;-70
2021/09/01 04:50:20;;;;;;;0.10;0.10;;;16.90;82.60;;;;;;5082682;28;20213;-70
2021/09/01 04:52:47;;;;;;;0.10;0.10;;;16.90;82.50;;;;;;5086161;28;20221;-70
2021/09/01 04:55:15;;;;;;;0.63;0.63;;;16.90;82.50;;;;;;5068518;28;20587;-70
2021/09/01 04:57:43;;;;;;;0.10;0.10;;;16.90;82.70;;;;;;5065584;28;20236;-70
2021/09/01 05:00:12;;;;;;;0.37;0.37;;;16.90;82.90;;;;;;5085476;28;20213;-70
2021/09/01 05:02:39;;;;;;;0.00;0.00;;;17.00;82.80;;;;;;5083529;28;20244;-70
2021/09/01 05:05:08;;;;;;;0.10;0.10;;;17.10;82.80;;;;;;5082081;28;20679;-70
2021/09/01 05:07:36;;;;;;;0.10;0.10;;;17.10;82.70;;;;;;5083502;28;20600;-70
2021/09/01 05:10:04;;;;;;;0.30;0.30;;;17.20;82.60;;;;;;5085016;28;20270;-70
2021/09/01 05:12:31;;;;;;;0.00;0.00;;;17.30;82.60;;;;;;5082279;28;20251;-70
2021/09/01 05:14:58;;;;;;;0.67;0.67;;;17.30;82.30;;;;;;5086049;28;20221;-70
2021/09/01 05:17:28;;;;;;;0.00;0.00;;;17.40;82.10;;;;;;5078302;28;20209;-70
2021/09/01 05:19:55;;;;;;;0.20;0.20;;;17.50;82.00;;;;;;5085414;28;20212;-70
2021/09/01 05:22:24;;;;;;;0.10;0.10;;;17.70;81.90;;;;;;5082548;28;20213;-70
2021/09/01 05:25:02;;;;;;;0.10;0.10;;;17.90;81.30;;;;;;5082227;28;20216;-70
2021/09/01 05:27:38;;;;;;;0.10;0.10;;;18.10;80.60;;;;;;5085100;28;20625;-70
2021/09/01 05:30:11;;;;;;;0.10;0.10;;;18.20;80.40;;;;;;5080508;28;20231;-70
2021/09/01 05:32:40;;;;;;;0.10;0.10;;;18.10;80.10;;;;;;5083418;28;20626;-70
2021/09/01 05:35:10;;;;;;;0.00;0.00;;;18.20;80.20;;;;;;5081843;28;20209;-70
2021/09/01 05:37:37;;;;;;;3.57;1.37;;;18.20;80.20;;;;;;5084707;28;20652;-70
2021/09/01 05:40:07;;;;;;;0.30;0.30;;;18.30;80.10;;;;;;5081426;28;20205;-70
2021/09/01 05:42:37;;;;;;;0.10;0.10;;;18.40;80.00;;;;;;5078706;28;20259;-70
2021/09/01 05:45:05;;;;;;;0.10;0.10;;;18.60;79.60;;;;;;5084473;28;20246;-70
2021/09/01 05:47:33;;;;;;;0.10;0.10;;;18.80;79.30;;;;;;5068391;28;20643;-70
2021/09/01 05:50:00;;;;;;;0.30;0.30;;;19.00;79.00;;;;;;5084270;28;20225;-70
2021/09/01 05:52:27;;;;;;;0.43;0.43;;;19.10;78.50;;;;;;5083363;28;20644;-70
2021/09/01 05:54:58;;;;;;;0.50;0.50;;;19.30;78.20;;;;;;5081196;28;20205;-70
2021/09/01 05:57:55;;;;;;;0.10;0.10;;;19.40;77.80;;;;;;5066811;28;20245;-70
2021/09/01 06:00:23;;;;;;;0.10;0.10;;;19.50;77.50;;;;;;5079619;28;20656;-70
2021/09/01 06:03:16;;;;;;;0.00;0.00;;;19.50;77.30;;;;;;5077786;28;20235;-70
2021/09/01 06:05:45;;;;;;;0.00;0.00;;;19.50;77.30;;;;;;5076665;28;20241;-70
2021/09/01 06:08:13;;;;;;;0.10;0.10;;;19.50;77.40;;;;;;5082784;28;20245;-70
2021/09/01 06:10:41;;;;;;;0.10;0.10;;;19.50;77.50;;;;;;5083707;28;20220;-70
2021/09/01 06:13:11;;;;;;;0.10;0.10;;;19.60;77.70;;;;;;5082547;28;20213;-70
2021/09/01 06:15:40;;;;;;;0.03;0.03;;;19.80;77.30;;;;;;5064476;28;20209;-70
2021/09/01 06:18:09;;;;;;;0.07;0.07;;;20.00;77.00;;;;;;5083812;28;20205;-70
2021/09/01 06:20:37;;;;;;;0.00;0.00;;;20.10;76.40;;;;;;5063293;28;20639;-70
2021/09/01 06:23:05;;;;;;;0.10;0.10;;;20.20;76.30;;;;;;5080314;28;20615;-70
2021/09/01 06:25:33;;;;;;;0.10;0.10;;;20.40;76.10;;;;;;5062751;28;20669;-70
2021/09/01 06:28:01;;;;;;;0.57;0.57;;;20.60;75.60;;;;;;5081757;28;20241;-70
2021/09/01 06:30:28;;;;;;;0.10;0.10;;;20.80;74.70;;;;;;5083016;28;20257;-70
2021/09/01 06:32:55;;;;;;;0.10;0.10;;;20.90;74.00;;;;;;5082691;28;20222;-70
2021/09/01 06:35:22;;;;;;;0.10;0.10;;;21.10;73.80;;;;;;5082521;28;20209;-70
2021/09/01 06:37:53;;;;;;;0.00;0.00;;;21.30;73.10;;;;;;5083407;28;20287;-70
2021/09/01 06:40:21;;;;;;;0.20;0.20;;;21.50;72.60;;;;;;5063675;28;20627;-70
2021/09/01 06:42:48;;;;;;;0.10;0.10;;;21.60;72.30;;;;;;5066558;28;20354;-70
2021/09/01 06:45:15;;;;;;;0.30;0.30;;;21.60;71.70;;;;;;5062778;28;20216;-70
2021/09/01 06:47:51;;;;;;;0.10;0.10;;;21.70;71.70;;;;;;5073996;28;20225;-70
2021/09/01 06:50:26;;;;;;;0.13;0.13;;;21.70;71.60;;;;;;5082532;28;20204;-70
2021/09/01 06:52:54;;;;;;;0.00;0.00;;;21.80;71.70;;;;;;5080248;28;20238;-70
2021/09/01 06:55:21;;;;;;;0.70;0.70;;;22.00;71.10;;;;;;5080117;28;20569;-70
2021/09/01 06:57:48;;;;;;;0.10;0.10;;;22.10;70.40;;;;;;5079976;28;20670;-70
2021/09/01 07:00:17;;;;;;;0.00;0.00;;;22.20;70.30;;;;;;5076443;28;20221;-70
2021/09/01 07:02:46;;;;;;;5.33;3.20;;;22.40;70.00;;;;;;5082539;28;20663;-70
2021/09/01 07:05:14;;;;;;;0.00;0.00;;;22.60;69.80;;;;;;5077968;28;20233;-70
2021/09/01 07:07:43;;;;;;;0.00;0.00;;;22.90;69.30;;;;;;5081862;28;20213;-70
2021/09/01 07:10:12;;;;;;;0.00;0.00;;;23.10;68.90;;;;;;5081996;28;20308;-70
2021/09/01 07:12:39;;;;;;;0.20;0.20;;;23.30;68.00;;;;;;5064261;28;20229;-70
2021/09/01 07:15:08;;;;;;;0.10;0.10;;;23.40;67.60;;;;;;5076487;28;20205;-70
2021/09/01 07:17:37;;;;;;;0.10;0.10;;;23.50;67.60;;;;;;5079607;28;20202;-70
2021/09/01 07:20:06;;;;;;;0.07;0.07;;;23.60;67.10;;;;;;5076576;28;20221;-70
2021/09/01 07:22:33;;;;;;;0.00;0.00;;;23.60;67.10;;;;;;5081152;28;20223;-70
2021/09/01 07:25:01;;;;;;;0.00;0.00;;;23.80;67.00;;;;;;5079591;28;20729;-70
2021/09/01 07:27:29;;;;;;;0.00;0.00;;;24.00;66.70;;;;;;5081270;28;20727;-70
2021/09/01 07:29:56;;;;;;;0.30;0.30;;;24.20;66.40;;;;;;5064219;28;20216;-70
2021/09/01 07:32:24;;;;;;;0.00;0.00;;;24.40;66.00;;;;;;5080733;28;20232;-70
2021/09/01 07:34:51;;;;;;;1.33;1.33;;;24.50;65.70;;;;;;5073598;28;20604;-70
2021/09/01 07:37:18;;;;;;;0.40;0.40;;;24.60;65.50;;;;;;5076156;28;20212;-70
2021/09/01 07:39:46;;;;;;;0.47;0.47;;;24.80;64.80;;;;;;5081850;28;20233;-70
2021/09/01 07:42:13;;;;;;;0.00;0.00;;;24.70;64.80;;;;;;5073684;28;20646;-70
2021/09/01 07:44:39;;;;;;;0.10;0.10;;;24.80;65.30;;;;;;5076288;28;20232;-70
2021/09/01 07:47:07;;;;;;;0.03;0.03;;;24.90;65.10;;;;;;5082925;28;20208;-70
2021/09/01 07:49:34;;;;;;;0.50;0.40;;;25.00;64.70;;;;;;5080877;28;20213;-70
2021/09/01 07:52:02;;;;;;;0.20;0.20;;;25.10;64.90;;;;;;5080680;28;20237;-70
2021/09/01 07:54:31;;;;;;;0.10;0.10;;;25.30;64.90;;;;;;5078537;28;20209;-70
2021/09/01 07:56:57;;;;;;;0.00;0.00;;;25.40;64.50;;;;;;5063812;28;20213;-70
2021/09/01 07:59:25;;;;;;;0.10;0.10;;;25.60;64.50;;;;;;5082104;28;20213;-70
2021/09/01 08:01:52;;;;;;;0.07;0.07;;;25.80;64.20;;;;;;5062898;28;20244;-70
2021/09/01 08:04:21;;;;;;;1.17;1.10;;;26.00;63.60;;;;;;5082377;28;20252;-70
2021/09/01 08:06:48;;;;;;;0.00;0.00;;;26.00;63.00;;;;;;5079544;28;20225;-70
2021/09/01 08:09:15;;;;;;;0.40;0.40;;;26.00;63.50;;;;;;5074376;28;20217;-70
2021/09/01 08:11:43;;;;;;;0.10;0.10;;;26.10;63.40;;;;;;5080008;28;20578;-70
2021/09/01 08:14:10;;;;;;;0.10;0.10;;;26.30;63.30;;;;;;5084440;28;20648;-70
2021/09/01 08:16:38;;;;;;;0.10;0.10;;;26.40;62.90;;;;;;5085983;28;20638;-70
2021/09/01 08:19:05;;;;;;;0.20;0.20;;;26.60;62.80;;;;;;5084408;28;20214;-70
2021/09/01 08:21:32;;;;;;;0.00;0.00;;;26.80;62.20;;;;;;5082781;28;20217;-70
2021/09/01 08:23:59;;;;;;;1.20;1.13;;;27.00;61.90;;;;;;5083098;28;20213;-70
2021/09/01 08:26:26;;;;;;;0.03;0.03;;;27.10;61.50;;;;;;5076067;28;20218;-70
2021/09/01 08:28:53;;;;;;;0.10;0.10;;;27.30;61.30;;;;;;5084162;28;20209;-70
2021/09/01 08:31:19;;;;;;;0.00;0.00;;;27.40;61.00;;;;;;5085282;28;20209;-71
2021/09/01 08:33:47;;;;;;;0.00;0.00;;;27.60;60.80;;;;;;5083508;28;20602;-70
2021/09/01 08:36:18;;;;;;;0.00;0.00;;;27.70;60.00;;;;;;5078752;28;20218;-70
2021/09/01 08:38:45;;;;;;;0.00;0.00;;;27.90;60.20;;;;;;5086359;28;20266;-70
2021/09/01 08:41:15;;;;;;;0.00;0.00;;;28.10;60.10;;;;;;5065234;28;20271;-70
2021/09/01 08:43:42;;;;;;;0.10;0.10;;;28.30;59.70;;;;;;5085103;28;20564;-69
2021/09/01 08:46:09;;;;;;;0.00;0.00;;;28.40;59.10;;;;;;5083954;28;20220;-70
2021/09/01 08:48:39;;;;;;;0.30;0.30;;;28.30;59.20;;;;;;5083993;28;20620;-69
2021/09/01 08:51:07;;;;;;;0.00;0.00;;;28.20;59.50;;;;;;5082197;28;20224;-70
2021/09/01 08:53:39;;;;;;;0.00;0.00;;;28.10;59.30;;;;;;5084516;28;20623;-70
2021/09/01 08:56:06;;;;;;;0.00;0.00;;;28.10;59.00;;;;;;5078258;28;20221;-69
2021/09/01 08:58:33;;;;;;;0.00;0.00;;;28.20;58.90;;;;;;5085657;28;20654;-69
2021/09/01 09:01:00;;;;;;;0.10;0.10;;;28.50;58.20;;;;;;5082578;28;20628;-69
2021/09/01 09:03:29;;;;;;;0.10;0.10;;;29.00;57.50;;;;;;5084711;28;20204;-69
2021/09/01 09:06:05;;;;;;;0.00;0.00;;;29.40;56.80;;;;;;5083663;28;20225;-69
2021/09/01 09:08:33;;;;;;;0.07;0.07;;;29.80;55.90;;;;;;5082823;28;20217;-69
2021/09/01 09:11:01;;;;;;;0.00;0.00;;;30.00;55.10;;;;;;5085518;28;20209;-70
2021/09/01 09:13:34;;;;;;;0.00;0.00;;;30.20;54.70;;;;;;5080388;28;20229;-70
2021/09/01 09:16:09;;;;;;;0.00;0.00;;;30.30;53.60;;;;;;5082754;28;20217;-70
2021/09/01 09:18:38;;;;;;;0.10;0.10;;;30.20;52.40;;;;;;5065535;28;20209;-70
2021/09/01 09:21:19;;;;;;;0.10;0.10;;;30.20;52.80;;;;;;5081190;28;20217;-70
2021/09/01 09:23:51;;;;;;;0.10;0.10;;;30.40;53.00;;;;;;5080513;28;20686;-70
2021/09/01 09:26:22;;;;;;;0.00;0.00;;;30.60;52.30;;;;;;5085605;28;20209;-70
2021/09/01 09:29:05;;;;;;;0.53;0.53;;;30.70;51.90;;;;;;5084907;28;20213;-70
2021/09/01 09:31:32;;;;;;;0.00;0.00;;;30.70;51.10;;;;;;5081128;28;20530;-70
2021/09/01 09:34:08;;;;;;;0.10;0.10;;;30.70;51.40;;;;;;5083366;28;20262;-69
2021/09/01 09:36:36;;;;;;;0.00;0.00;;;30.80;51.50;;;;;;5084740;28;20208;-69
2021/09/01 09:39:38;;;;;;;1.03;1.03;;;30.90;50.60;;;;;;5060873;28;20557;-72
2021/09/01 09:42:06;;;;;;;0.30;0.30;;;31.00;50.60;;;;;;5049536;28;20206;-73
2021/09/01 09:44:33;;;;;;;0.20;0.20;;;31.00;50.40;;;;;;5039191;28;20605;-73
2021/09/01 09:47:00;;;;;;;0.00;0.00;;;30.90;49.00;;;;;;5038016;28;20527;-73
2021/09/01 09:49:28;;;;;;;0.30;0.30;;;30.60;49.00;;;;;;5038748;28;20219;-73
2021/09/01 09:51:56;;;;;;;0.10;0.10;;;30.40;49.70;;;;;;5037345;28;20595;-73
2021/09/01 09:54:25;;;;;;;0.00;0.00;;;30.30;50.00;;;;;;5041369;28;20219;-72
2021/09/01 09:57:13;;;;;;;0.00;0.00;;;30.50;50.20;;;;;;5036667;28;20564;-73
2021/09/01 09:59:44;;;;;;;0.20;0.20;;;30.70;50.10;;;;;;5039386;28;20214;-73
2021/09/01 10:02:11;;;;;;;0.00;0.00;;;30.80;48.90;;;;;;5037360;28;20211;-73
2021/09/01 10:04:38;;;;;;;0.10;0.10;;;30.90;49.20;;;;;;5029368;28;20211;-74
2021/09/01 10:07:07;;;;;;;0.10;0.10;;;30.90;48.40;;;;;;5028932;28;20218;-74
2021/09/01 10:09:37;;;;;;;0.00;0.00;;;30.90;48.50;;;;;;5029019;28;20302;-74
2021/09/01 10:12:04;;;;;;;0.00;0.00;;;30.90;48.70;;;;;;5030951;28;20292;-73
2021/09/01 10:14:32;;;;;;;0.00;0.00;;;31.00;48.80;;;;;;5041004;28;20266;-73
2021/09/01 10:17:10;;;;;;;0.53;0.23;;;31.30;48.60;;;;;;5040957;28;20221;-73
2021/09/01 10:19:38;;;;;;;0.00;0.00;;;31.50;48.40;;;;;;5037230;28;20322;-73
2021/09/01 10:22:07;;;;;;;0.00;0.00;;;31.70;48.00;;;;;;5040317;28;20203;-73
2021/09/01 10:24:41;;;;;;;0.00;0.00;;;31.50;46.70;;;;;;5033082;28;20215;-72
2021/09/01 10:27:17;;;;;;;0.03;0.03;;;30.90;46.00;;;;;;5037165;28;20226;-73
2021/09/01 10:29:55;;;;;;;0.10;0.10;;;30.40;46.00;;;;;;5036694;28;20643;-73
2021/09/01 10:32:24;;;;;;;0.00;0.00;;;30.30;47.00;;;;;;5038266;28;20296;-73
2021/09/01 10:37:46;;;;;;;0.00;0.00;;;30.40;45.60;;;;;;5038277;28;20305;-72
2021/09/01 10:40:33;;;;;;;0.00;0.00;;;30.20;46.80;;;;;;5041316;28;20570;-74
2021/09/01 10:43:18;;;;;;;0.00;0.00;;;30.40;47.40;;;;;;5039000;28;20219;-74
2021/09/01 10:45:48;;;;;;;0.03;0.03;;;30.70;46.80;;;;;;5037419;28;20273;-72
2021/09/01 10:48:16;;;;;;;0.00;0.00;;;31.00;46.00;;;;;;5039224;28;20280;-72
2021/09/01 10:50:51;;;;;;;0.00;0.00;;;31.10;46.10;;;;;;5025410;28;20220;-72
2021/09/01 10:53:28;;;;;;;0.00;0.00;;;31.40;46.10;;;;;;5026352;28;20221;-73
2021/09/01 10:56:07;;;;;;;0.00;0.00;;;31.50;45.50;;;;;;5023926;28;20685;-72
2021/09/01 10:58:44;;;;;;;0.00;0.00;;;31.60;45.60;;;;;;5024273;28;20242;-72
2021/09/01 11:01:13;;;;;;;0.00;0.00;;;31.70;45.30;;;;;;5024431;28;20215;-72
2021/09/01 11:03:48;;;;;;;0.00;0.00;;;31.80;45.00;;;;;;5024714;28;20306;-72
2021/09/01 11:06:20;;;;;;;0.00;0.00;;;31.90;45.10;;;;;;5025556;28;20644;-72
2021/09/01 11:09:07;;;;;;;0.00;0.00;;;32.00;44.90;;;;;;5022976;28;20219;-72
2021/09/01 11:11:50;;;;;;;0.00;0.00;;;32.00;44.80;;;;;;5025588;28;20223;-74
2021/09/01 11:14:30;;;;;;;0.00;0.00;;;32.10;44.50;;;;;;5023737;28;20615;-74
2021/09/01 11:16:58;;;;;;;0.00;0.00;;;32.10;44.10;;;;;;5022907;28;20219;-74
2021/09/01 11:19:26;;;;;;;0.00;0.00;;;31.90;43.60;;;;;;5026297;28;20239;-74
2021/09/01 11:21:55;;;;;;;0.00;0.00;;;31.80;43.50;;;;;;5021636;28;20207;-74
2021/09/01 11:24:22;;;;;;;0.00;0.00;;;31.80;43.80;;;;;;5024287;28;20215;-74
2021/09/01 11:26:57;;;;;;;0.00;0.00;;;31.90;44.10;;;;;;5024908;28;20238;-73
2021/09/01 11:29:34;;;;;;;0.00;0.00;;;32.10;44.10;;;;;;5032748;28;20219;-73
2021/09/01 11:32:02;;;;;;;0.00;0.00;;;32.20;43.80;;;;;;5026017;28;20297;-73
2021/09/01 11:34:30;;;;;;;0.20;0.20;;;32.30;43.40;;;;;;5023217;28;20219;-73
2021/09/01 11:36:58;;;;;;;0.00;0.00;;;32.30;42.40;;;;;;5032033;28;20215;-73
2021/09/01 11:39:29;;;;;;;0.00;0.00;;;32.10;41.50;;;;;;5029511;28;20238;-73
2021/09/01 11:42:03;;;;;;;0.40;0.40;;;31.80;42.40;;;;;;5024974;28;20351;-73
2021/09/01 11:44:30;;;;;;;0.10;0.10;;;31.70;42.50;;;;;;5035987;28;20587;-73
2021/09/01 11:46:58;;;;;;;0.00;0.00;;;31.60;43.00;;;;;;5024317;28;20208;-74
2021/09/01 11:49:25;;;;;;;0.00;0.00;;;31.50;42.80;;;;;;5025730;28;20222;-74
2021/09/01 11:51:53;;;;;;;0.20;0.20;;;31.20;43.10;;;;;;5020629;28;20576;-73
2021/09/01 11:54:20;;;;;;;0.00;0.00;;;30.90;43.40;;;;;;5024637;28;20306;-73
2021/09/01 11:56:52;;;;;;;0.00;0.00;;;30.80;43.30;;;;;;5022941;28;20215;-74
2021/09/01 11:59:19;;;;;;;0.00;0.00;;;30.70;44.00;;;;;;5023354;28;20245;-73
2021/09/01 12:01:46;;;;;;;0.00;0.00;;;30.80;44.30;;;;;;5022538;28;20211;-73
2021/09/01 12:04:18;;;;;;;0.00;0.00;;;31.00;44.10;;;;;;5021844;28;20292;-73
2021/09/01 12:07:05;;;;;;;0.07;0.07;;;31.20;43.50;;;;;;5023626;28;20258;-74
2021/09/01 12:09:35;;;;;;;0.00;0.00;;;31.30;43.20;;;;;;5021471;28;20218;-74
2021/09/01 12:12:04;;;;;;;0.07;0.07;;;31.50;43.50;;;;;;5027668;28;20215;-73
2021/09/01 12:14:33;;;;;;;1.00;0.67;;;31.60;43.00;;;;;;5021155;28;20216;-73
2021/09/01 12:17:15;;;;;;;0.00;0.00;;;31.50;41.90;;;;;;5024468;28;20226;-73
2021/09/01 12:20:00;;;;;;;0.00;0.00;;;31.30;42.30;;;;;;5024725;28;20242;-73
2021/09/01 12:22:34;;;;;;;0.97;0.87;;;31.20;43.00;;;;;;5021155;28;20211;-73
2021/09/01 12:25:05;;;;;;;0.00;0.00;;;31.30;42.60;;;;;;5021863;28;20217;-73
2021/09/01 12:27:36;;;;;;;0.00;0.00;;;31.20;41.40;;;;;;5021591;28;20266;-73
2021/09/01 12:30:12;;;;;;;0.00;0.00;;;30.70;41.70;;;;;;5023962;28;20265;-73
2021/09/01 12:32:40;;;;;;;0.00;0.00;;;30.10;42.80;;;;;;5023300;28;20254;-73
2021/09/01 12:35:09;;;;;;;0.00;0.00;;;29.80;43.30;;;;;;5021667;28;20212;-73
2021/09/01 12:37:38;;;;;;;0.00;0.00;;;29.80;43.70;;;;;;5024833;28;20243;-73
2021/09/01 12:40:12;;;;;;;0.00;0.00;;;29.90;43.70;;;;;;5020571;28;20726;-72
2021/09/01 12:42:41;;;;;;;0.00;0.00;;;30.20;43.80;;;;;;5022566;28;20273;-73
2021/09/01 12:45:09;;;;;;;0.00;0.00;;;30.50;43.60;;;;;;5026804;28;20210;-74
2021/09/01 12:47:52;;;;;;;0.00;0.00;;;30.80;41.90;;;;;;5022021;28;20209;-73
2021/09/01 12:50:20;;;;;;;0.00;0.00;;;30.80;41.20;;;;;;5022254;28;20546;-73
2021/09/01 12:52:47;;;;;;;0.20;0.20;;;30.70;41.00;;;;;;5022640;28;20211;-73
2021/09/01 12:55:14;;;;;;;0.00;0.00;;;30.60;41.80;;;;;;5020509;28;20528;-73
2021/09/01 12:57:41;;;;;;;0.00;0.00;;;30.50;41.90;;;;;;5023692;28;20537;-73
2021/09/01 13:00:10;;;;;;;0.00;0.00;;;30.60;42.00;;;;;;5020584;28;20243;-72
2021/09/01 13:02:37;;;;;;;0.00;0.00;;;30.70;41.20;;;;;;5021949;28;20235;-72